sensor_id;sensor_type;location;lat;lon;timestamp;temperature;humidity
53653;DHT22;39553;52.954;5.932;2022-09-01T00:01:39;13.90;99.90
53653;DHT22;39553;52.954;5.932;2022-09-01T00:04:11;13.90;99.90
53653;DHT22;39553;52.954;5.932;2022-09-01T00:06:38;13.90;99.90
53653;DHT22;39553;52.954;5.932;2022-09-01T00:09:09;14.10;99.90
53653;DHT22;39553;52.954;5.932;2022-09-01T00:11:35;13.80;99.90
53653;DHT22;39553;52.954;5.932;2022-09-01T00:14:02;14.00;99.90
53653;DHT22;39553;52.954;5.932;2022-09-01T00:16:29;13.80;99.90
53653;DHT22;39553;52.954;5.932;2022-09-01T00:18:55;13.80;99.90
53653;DHT22;39553;52.954;5.932;2022-09-01T00:21:26;14.10;99.90
53653;DHT22;39553;52.954;5.932;2022-09-01T00:23:53;13.80;99.90
53653;DHT22;39553;52.954;5.932;2022-09-01T00:26:19;13.80;99.90
53653;DHT22;39553;52.954;5.932;2022-09-01T00:28:44;13.80;99.90
53653;DHT22;39553;52.954;5.932;2022-09-01T00:31:10;13.70;99.90
53653;DHT22;39553;52.954;5.932;2022-09-01T00:33:37;14.20;99.90
53653;DHT22;39553;52.954;5.932;2022-09-01T00:36:04;13.70;99.90
53653;DHT22;39553;52.954;5.932;2022-09-01T00:38:30;13.70;99.90
53653;DHT22;39553;52.954;5.932;2022-09-01T00:40:56;13.70;99.90
53653;DHT22;39553;52.954;5.932;2022-09-01T00:43:36;13.70;99.90
53653;DHT22;39553;52.954;5.932;2022-09-01T00:46:04;13.70;99.90
53653;DHT22;39553;52.954;5.932;2022-09-01T00:48:30;13.70;99.90
53653;DHT22;39553;52.954;5.932;2022-09-01T00:50:57;13.70;99.90
53653;DHT22;39553;52.954;5.932;2022-09-01T00:53:23;13.70;99.90
53653;DHT22;39553;52.954;5.932;2022-09-01T00:55:50;13.60;99.90
53653;DHT22;39553;52.954;5.932;2022-09-01T00:58:15;13.60;99.90
53653;DHT22;39553;52.954;5.932;2022-09-01T01:00:42;13.50;99.90
53653;DHT22;39553;52.954;5.932;2022-09-01T01:03:10;13.60;99.90
53653;DHT22;39553;52.954;5.932;2022-09-01T01:05:42;13.60;99.90
53653;DHT22;39553;52.954;5.932;2022-09-01T01:08:11;13.50;99.90
53653;DHT22;39553;52.954;5.932;2022-09-01T01:10:39;13.60;99.90
53653;DHT22;39553;52.954;5.932;2022-09-01T01:13:09;13.40;99.90
53653;DHT22;39553;52.954;5.932;2022-09-01T01:15:35;13.50;99.90
53653;DHT22;39553;52.954;5.932;2022-09-01T01:18:01;13.50;99.90
53653;DHT22;39553;52.954;5.932;2022-09-01T01:20:28;13.40;99.90
53653;DHT22;39553;52.954;5.932;2022-09-01T01:23:26;13.40;99.90
53653;DHT22;39553;52.954;5.932;2022-09-01T01:25:59;13.40;99.90
53653;DHT22;39553;52.954;5.932;2022-09-01T01:28:32;13.40;99.90
53653;DHT22;39553;52.954;5.932;2022-09-01T01:31:04;13.40;99.90
53653;DHT22;39553;52.954;5.932;2022-09-01T01:33:34;13.40;99.90
53653;DHT22;39553;52.954;5.932;2022-09-01T01:36:05;13.30;99.90
53653;DHT22;39553;52.954;5.932;2022-09-01T01:38:32;13.30;99.90
53653;DHT22;39553;52.954;5.932;2022-09-01T01:41:00;13.20;99.90
53653;DHT22;39553;52.954;5.932;2022-09-01T01:43:28;13.20;99.90
53653;DHT22;39553;52.954;5.932;2022-09-01T01:45:55;13.20;99.90
53653;DHT22;39553;52.954;5.932;2022-09-01T01:48:24;13.20;99.90
53653;DHT22;39553;52.954;5.932;2022-09-01T01:50:51;13.20;99.90
53653;DHT22;39553;52.954;5.932;2022-09-01T01:53:18;13.20;99.90
53653;DHT22;39553;52.954;5.932;2022-09-01T01:55:45;13.20;99.90
53653;DHT22;39553;52.954;5.932;2022-09-01T01:58:14;13.10;99.90
53653;DHT22;39553;52.954;5.932;2022-09-01T02:00:41;13.10;99.90
53653;DHT22;39553;52.954;5.932;2022-09-01T02:03:13;13.10;99.90
53653;DHT22;39553;52.954;5.932;2022-09-01T02:05:42;13.00;99.90
53653;DHT22;39553;52.954;5.932;2022-09-01T02:08:09;13.00;99.90
53653;DHT22;39553;52.954;5.932;2022-09-01T02:10:39;13.00;99.90
53653;DHT22;39553;52.954;5.932;2022-09-01T02:13:09;13.00;99.90
53653;DHT22;39553;52.954;5.932;2022-09-01T02:15:42;12.90;99.90
53653;DHT22;39553;52.954;5.932;2022-09-01T02:18:19;12.90;99.90
53653;DHT22;39553;52.954;5.932;2022-09-01T02:20:47;12.90;99.90
53653;DHT22;39553;52.954;5.932;2022-09-01T02:23:15;12.90;99.90
53653;DHT22;39553;52.954;5.932;2022-09-01T02:25:43;12.80;99.90
53653;DHT22;39553;52.954;5.932;2022-09-01T02:28:14;12.80;99.90
53653;DHT22;39553;52.954;5.932;2022-09-01T02:30:48;12.80;99.90
53653;DHT22;39553;52.954;5.932;2022-09-01T02:33:17;12.80;99.90
53653;DHT22;39553;52.954;5.932;2022-09-01T02:35:45;12.70;99.90
53653;DHT22;39553;52.954;5.932;2022-09-01T02:38:11;12.70;99.90
53653;DHT22;39553;52.954;5.932;2022-09-01T02:40:39;12.70;99.90
53653;DHT22;39553;52.954;5.932;2022-09-01T02:43:08;12.60;99.90
53653;DHT22;39553;52.954;5.932;2022-09-01T02:45:37;12.70;99.90
53653;DHT22;39553;52.954;5.932;2022-09-01T02:48:03;12.60;99.90
53653;DHT22;39553;52.954;5.932;2022-09-01T02:50:35;12.60;99.90
53653;DHT22;39553;52.954;5.932;2022-09-01T02:53:01;12.60;99.90
53653;DHT22;39553;52.954;5.932;2022-09-01T02:55:27;12.60;99.90
53653;DHT22;39553;52.954;5.932;2022-09-01T02:57:53;12.60;99.90
53653;DHT22;39553;52.954;5.932;2022-09-01T03:00:23;12.70;99.90
53653;DHT22;39553;52.954;5.932;2022-09-01T03:03:02;12.60;99.90
53653;DHT22;39553;52.954;5.932;2022-09-01T03:05:29;12.60;99.90
53653;DHT22;39553;52.954;5.932;2022-09-01T03:08:00;12.50;99.90
53653;DHT22;39553;52.954;5.932;2022-09-01T03:10:29;12.50;99.90
53653;DHT22;39553;52.954;5.932;2022-09-01T03:13:05;12.50;99.90
53653;DHT22;39553;52.954;5.932;2022-09-01T03:15:34;12.50;99.90
53653;DHT22;39553;52.954;5.932;2022-09-01T03:18:02;12.40;99.90
53653;DHT22;39553;52.954;5.932;2022-09-01T03:20:30;12.40;99.90
53653;DHT22;39553;52.954;5.932;2022-09-01T03:23:02;12.40;99.90
53653;DHT22;39553;52.954;5.932;2022-09-01T03:25:28;12.40;99.90
53653;DHT22;39553;52.954;5.932;2022-09-01T03:27:56;12.40;99.90
53653;DHT22;39553;52.954;5.932;2022-09-01T03:30:33;12.30;99.90
53653;DHT22;39553;52.954;5.932;2022-09-01T03:33:00;12.30;99.90
53653;DHT22;39553;52.954;5.932;2022-09-01T03:35:27;12.30;99.90
53653;DHT22;39553;52.954;5.932;2022-09-01T03:37:54;12.30;99.90
53653;DHT22;39553;52.954;5.932;2022-09-01T03:40:25;12.30;99.90
53653;DHT22;39553;52.954;5.932;2022-09-01T03:42:53;12.30;99.90
53653;DHT22;39553;52.954;5.932;2022-09-01T03:45:20;12.30;99.90
53653;DHT22;39553;52.954;5.932;2022-09-01T03:47:46;12.30;99.90
53653;DHT22;39553;52.954;5.932;2022-09-01T03:50:16;12.60;99.90
53653;DHT22;39553;52.954;5.932;2022-09-01T03:52:54;12.30;99.90
53653;DHT22;39553;52.954;5.932;2022-09-01T03:55:28;12.30;99.90
53653;DHT22;39553;52.954;5.932;2022-09-01T03:57:58;12.30;99.90
53653;DHT22;39553;52.954;5.932;2022-09-01T04:00:27;12.50;99.90
53653;DHT22;39553;52.954;5.932;2022-09-01T04:02:56;12.30;99.90
53653;DHT22;39553;52.954;5.932;2022-09-01T04:05:27;12.30;99.90
53653;DHT22;39553;52.954;5.932;2022-09-01T04:07:57;12.30;99.90
53653;DHT22;39553;52.954;5.932;2022-09-01T04:10:26;12.90;99.90
53653;DHT22;39553;52.954;5.932;2022-09-01T04:12:52;12.20;99.90
53653;DHT22;39553;52.954;5.932;2022-09-01T04:15:21;12.20;99.90
53653;DHT22;39553;52.954;5.932;2022-09-01T04:17:47;12.20;99.90
53653;DHT22;39553;52.954;5.932;2022-09-01T04:20:31;12.60;99.90
53653;DHT22;39553;52.954;5.932;2022-09-01T04:23:07;12.20;99.90
53653;DHT22;39553;52.954;5.932;2022-09-01T04:25:36;12.30;99.90
53653;DHT22;39553;52.954;5.932;2022-09-01T04:28:04;12.20;99.90
53653;DHT22;39553;52.954;5.932;2022-09-01T04:30:38;12.20;99.90
53653;DHT22;39553;52.954;5.932;2022-09-01T04:33:07;12.30;99.90
53653;DHT22;39553;52.954;5.932;2022-09-01T04:35:39;12.20;99.90
53653;DHT22;39553;52.954;5.932;2022-09-01T04:38:05;12.40;99.90
53653;DHT22;39553;52.954;5.932;2022-09-01T04:40:39;12.10;99.90
53653;DHT22;39553;52.954;5.932;2022-09-01T04:43:06;12.10;99.90
53653;DHT22;39553;52.954;5.932;2022-09-01T04:45:34;12.10;99.90
53653;DHT22;39553;52.954;5.932;2022-09-01T04:48:02;12.10;99.90
53653;DHT22;39553;52.954;5.932;2022-09-01T04:50:28;12.10;99.90
53653;DHT22;39553;52.954;5.932;2022-09-01T04:52:57;12.10;99.90
53653;DHT22;39553;52.954;5.932;2022-09-01T04:55:26;12.10;99.90
53653;DHT22;39553;52.954;5.932;2022-09-01T04:57:56;12.10;99.90
53653;DHT22;39553;52.954;5.932;2022-09-01T05:00:24;12.10;99.90
53653;DHT22;39553;52.954;5.932;2022-09-01T05:02:53;12.10;99.90
53653;DHT22;39553;52.954;5.932;2022-09-01T05:05:20;12.10;99.90
53653;DHT22;39553;52.954;5.932;2022-09-01T05:07:46;12.10;99.90
53653;DHT22;39553;52.954;5.932;2022-09-01T05:10:15;12.40;99.90
53653;DHT22;39553;52.954;5.932;2022-09-01T05:12:43;12.10;99.90
53653;DHT22;39553;52.954;5.932;2022-09-01T05:15:11;12.20;99.90
53653;DHT22;39553;52.954;5.932;2022-09-01T05:17:38;12.20;99.90
53653;DHT22;39553;52.954;5.932;2022-09-01T05:20:05;12.20;99.90
53653;DHT22;39553;52.954;5.932;2022-09-01T05:22:32;12.30;99.90
53653;DHT22;39553;52.954;5.932;2022-09-01T05:24:59;12.30;99.90
53653;DHT22;39553;52.954;5.932;2022-09-01T05:27:37;12.40;99.90
53653;DHT22;39553;52.954;5.932;2022-09-01T05:30:05;12.40;99.90
53653;DHT22;39553;52.954;5.932;2022-09-01T05:32:36;12.50;99.90
53653;DHT22;39553;52.954;5.932;2022-09-01T05:35:04;12.50;99.90
53653;DHT22;39553;52.954;5.932;2022-09-01T05:37:36;12.60;99.90
53653;DHT22;39553;52.954;5.932;2022-09-01T05:40:07;12.70;99.90
53653;DHT22;39553;52.954;5.932;2022-09-01T05:42:45;12.70;99.90
53653;DHT22;39553;52.954;5.932;2022-09-01T05:45:11;12.80;99.90
53653;DHT22;39553;52.954;5.932;2022-09-01T05:47:39;13.60;99.90
53653;DHT22;39553;52.954;5.932;2022-09-01T05:50:06;13.00;99.90
53653;DHT22;39553;52.954;5.932;2022-09-01T05:52:37;13.10;99.90
53653;DHT22;39553;52.954;5.932;2022-09-01T05:55:04;13.10;99.90
53653;DHT22;39553;52.954;5.932;2022-09-01T05:57:36;13.20;99.90
53653;DHT22;39553;52.954;5.932;2022-09-01T06:00:06;13.20;99.90
53653;DHT22;39553;52.954;5.932;2022-09-01T06:02:37;13.20;99.90
53653;DHT22;39553;52.954;5.932;2022-09-01T06:05:05;13.30;99.90
53653;DHT22;39553;52.954;5.932;2022-09-01T06:07:31;13.30;99.90
53653;DHT22;39553;52.954;5.932;2022-09-01T06:10:03;13.50;99.90
53653;DHT22;39553;52.954;5.932;2022-09-01T06:12:29;13.50;99.90
53653;DHT22;39553;52.954;5.932;2022-09-01T06:14:55;13.60;99.90
53653;DHT22;39553;52.954;5.932;2022-09-01T06:17:25;13.80;99.90
53653;DHT22;39553;52.954;5.932;2022-09-01T06:19:55;13.90;99.90
53653;DHT22;39553;52.954;5.932;2022-09-01T06:22:21;14.00;99.90
53653;DHT22;39553;52.954;5.932;2022-09-01T06:24:49;14.10;99.90
53653;DHT22;39553;52.954;5.932;2022-09-01T06:27:16;14.20;99.90
53653;DHT22;39553;52.954;5.932;2022-09-01T06:29:45;14.20;99.90
53653;DHT22;39553;52.954;5.932;2022-09-01T06:32:14;14.40;99.90
53653;DHT22;39553;52.954;5.932;2022-09-01T06:34:41;14.40;99.90
53653;DHT22;39553;52.954;5.932;2022-09-01T06:37:09;14.60;99.90
53653;DHT22;39553;52.954;5.932;2022-09-01T06:39:35;15.20;99.90
53653;DHT22;39553;52.954;5.932;2022-09-01T06:42:01;16.00;99.90
53653;DHT22;39553;52.954;5.932;2022-09-01T06:44:27;16.60;99.90
53653;DHT22;39553;52.954;5.932;2022-09-01T06:46:55;17.20;99.90
53653;DHT22;39553;52.954;5.932;2022-09-01T06:49:21;17.70;99.90
53653;DHT22;39553;52.954;5.932;2022-09-01T06:51:54;18.30;99.90
53653;DHT22;39553;52.954;5.932;2022-09-01T06:54:19;18.80;99.90
53653;DHT22;39553;52.954;5.932;2022-09-01T06:56:46;19.40;99.90
53653;DHT22;39553;52.954;5.932;2022-09-01T06:59:11;19.90;99.90
53653;DHT22;39553;52.954;5.932;2022-09-01T07:01:40;20.30;99.90
53653;DHT22;39553;52.954;5.932;2022-09-01T07:04:06;20.50;99.90
53653;DHT22;39553;52.954;5.932;2022-09-01T07:06:32;20.80;99.90
53653;DHT22;39553;52.954;5.932;2022-09-01T07:08:59;21.10;99.90
53653;DHT22;39553;52.954;5.932;2022-09-01T07:11:28;21.30;99.90
53653;DHT22;39553;52.954;5.932;2022-09-01T07:14:02;21.60;99.90
53653;DHT22;39553;52.954;5.932;2022-09-01T07:16:30;21.70;99.90
53653;DHT22;39553;52.954;5.932;2022-09-01T07:19:01;22.00;99.90
53653;DHT22;39553;52.954;5.932;2022-09-01T07:21:29;22.30;99.90
53653;DHT22;39553;52.954;5.932;2022-09-01T07:23:56;22.40;99.90
53653;DHT22;39553;52.954;5.932;2022-09-01T07:26:24;22.60;99.90
53653;DHT22;39553;52.954;5.932;2022-09-01T07:28:50;22.60;99.90
53653;DHT22;39553;52.954;5.932;2022-09-01T07:31:19;22.70;99.90
53653;DHT22;39553;52.954;5.932;2022-09-01T07:33:46;22.80;99.90
53653;DHT22;39553;52.954;5.932;2022-09-01T07:36:14;23.00;99.90
53653;DHT22;39553;52.954;5.932;2022-09-01T07:38:40;23.00;99.90
53653;DHT22;39553;52.954;5.932;2022-09-01T07:41:08;23.00;99.90
53653;DHT22;39553;52.954;5.932;2022-09-01T07:43:38;23.10;99.90
53653;DHT22;39553;52.954;5.932;2022-09-01T07:46:07;22.80;99.80
53653;DHT22;39553;52.954;5.932;2022-09-01T07:48:33;22.60;99.90
53653;DHT22;39553;52.954;5.932;2022-09-01T07:50:59;22.20;99.90
53653;DHT22;39553;52.954;5.932;2022-09-01T07:53:30;21.60;99.90
53653;DHT22;39553;52.954;5.932;2022-09-01T07:56:00;21.10;99.90
53653;DHT22;39553;52.954;5.932;2022-09-01T07:58:32;20.50;99.90
53653;DHT22;39553;52.954;5.932;2022-09-01T08:00:58;20.00;99.90
53653;DHT22;39553;52.954;5.932;2022-09-01T08:03:27;19.60;99.90
53653;DHT22;39553;52.954;5.932;2022-09-01T08:05:53;19.40;99.90
53653;DHT22;39553;52.954;5.932;2022-09-01T08:08:23;19.30;99.90
53653;DHT22;39553;52.954;5.932;2022-09-01T08:10:49;19.30;99.90
53653;DHT22;39553;52.954;5.932;2022-09-01T08:13:16;19.30;99.90
53653;DHT22;39553;52.954;5.932;2022-09-01T08:15:42;19.70;99.90
53653;DHT22;39553;52.954;5.932;2022-09-01T08:18:08;20.70;99.90
53653;DHT22;39553;52.954;5.932;2022-09-01T08:20:37;21.70;99.90
53653;DHT22;39553;52.954;5.932;2022-09-01T08:23:05;22.70;99.90
53653;DHT22;39553;52.954;5.932;2022-09-01T08:25:33;23.60;99.40
53653;DHT22;39553;52.954;5.932;2022-09-01T08:28:01;24.20;98.30
53653;DHT22;39553;52.954;5.932;2022-09-01T08:30:27;24.70;97.60
53653;DHT22;39553;52.954;5.932;2022-09-01T08:32:52;25.10;96.80
53653;DHT22;39553;52.954;5.932;2022-09-01T08:35:18;25.10;96.10
53653;DHT22;39553;52.954;5.932;2022-09-01T08:37:45;25.10;95.70
53653;DHT22;39553;52.954;5.932;2022-09-01T08:40:17;25.30;95.40
53653;DHT22;39553;52.954;5.932;2022-09-01T08:43:17;25.60;94.10
53653;DHT22;39553;52.954;5.932;2022-09-01T08:45:47;26.00;93.20
53653;DHT22;39553;52.954;5.932;2022-09-01T08:48:18;26.40;93.60
53653;DHT22;39553;52.954;5.932;2022-09-01T08:50:50;26.60;92.70
53653;DHT22;39553;52.954;5.932;2022-09-01T08:53:28;27.00;92.50
53653;DHT22;39553;52.954;5.932;2022-09-01T08:55:57;27.40;91.80
53653;DHT22;39553;52.954;5.932;2022-09-01T08:58:24;27.30;91.80
53653;DHT22;39553;52.954;5.932;2022-09-01T09:01:03;27.50;91.30
53653;DHT22;39553;52.954;5.932;2022-09-01T09:10:23;28.60;88.00
53653;DHT22;39553;52.954;5.932;2022-09-01T09:13:14;28.90;88.50
53653;DHT22;39553;52.954;5.932;2022-09-01T09:15:55;29.10;85.30
53653;DHT22;39553;52.954;5.932;2022-09-01T09:18:53;29.20;85.90
53653;DHT22;39553;52.954;5.932;2022-09-01T09:21:27;29.40;82.90
53653;DHT22;39553;52.954;5.932;2022-09-01T09:26:50;29.20;84.00
53653;DHT22;39553;52.954;5.932;2022-09-01T09:29:17;29.10;82.90
53653;DHT22;39553;52.954;5.932;2022-09-01T09:31:43;29.10;83.80
53653;DHT22;39553;52.954;5.932;2022-09-01T09:37:19;29.40;79.70
53653;DHT22;39553;52.954;5.932;2022-09-01T09:40:05;29.40;78.20
53653;DHT22;39553;52.954;5.932;2022-09-01T09:42:36;29.60;78.70
53653;DHT22;39553;52.954;5.932;2022-09-01T09:45:26;29.70;79.10
53653;DHT22;39553;52.954;5.932;2022-09-01T09:47:53;29.50;79.70
53653;DHT22;39553;52.954;5.932;2022-09-01T09:50:34;29.50;79.30
53653;DHT22;39553;52.954;5.932;2022-09-01T09:56:02;29.60;77.50
53653;DHT22;39553;52.954;5.932;2022-09-01T09:58:40;29.70;76.20
53653;DHT22;39553;52.954;5.932;2022-09-01T10:01:14;29.60;77.00
53653;DHT22;39553;52.954;5.932;2022-09-01T10:03:58;29.40;76.30
53653;DHT22;39553;52.954;5.932;2022-09-01T10:06:48;29.80;76.20
53653;DHT22;39553;52.954;5.932;2022-09-01T10:11:52;29.70;75.00
53653;DHT22;39553;52.954;5.932;2022-09-01T10:17:44;29.00;73.80
53653;DHT22;39553;52.954;5.932;2022-09-01T10:20:12;29.30;74.30
53653;DHT22;39553;52.954;5.932;2022-09-01T10:22:39;29.30;74.40
53653;DHT22;39553;52.954;5.932;2022-09-01T10:25:08;29.30;74.20
53653;DHT22;39553;52.954;5.932;2022-09-01T10:27:40;28.60;72.80
53653;DHT22;39553;52.954;5.932;2022-09-01T10:30:09;28.50;72.90
53653;DHT22;39553;52.954;5.932;2022-09-01T10:33:02;28.60;73.20
53653;DHT22;39553;52.954;5.932;2022-09-01T10:35:31;29.10;72.50
53653;DHT22;39553;52.954;5.932;2022-09-01T10:38:02;29.60;73.30
53653;DHT22;39553;52.954;5.932;2022-09-01T10:42:57;29.20;71.10
53653;DHT22;39553;52.954;5.932;2022-09-01T10:45:37;28.30;70.80
53653;DHT22;39553;52.954;5.932;2022-09-01T10:50:51;27.30;71.70
53653;DHT22;39553;52.954;5.932;2022-09-01T11:10:22;28.10;70.50
53653;DHT22;39553;52.954;5.932;2022-09-01T11:13:44;27.20;69.80
53653;DHT22;39553;52.954;5.932;2022-09-01T11:16:41;26.00;70.50
53653;DHT22;39553;52.954;5.932;2022-09-01T11:21:43;25.50;73.50
53653;DHT22;39553;52.954;5.932;2022-09-01T11:27:03;25.60;73.20
53653;DHT22;39553;52.954;5.932;2022-09-01T11:29:52;25.40;73.00
53653;DHT22;39553;52.954;5.932;2022-09-01T11:32:21;24.70;72.90
53653;DHT22;39553;52.954;5.932;2022-09-01T11:34:50;24.50;73.80
53653;DHT22;39553;52.954;5.932;2022-09-01T11:37:21;24.40;74.20
53653;DHT22;39553;52.954;5.932;2022-09-01T11:39:52;24.40;74.40
53653;DHT22;39553;52.954;5.932;2022-09-01T11:42:38;24.40;74.70
53653;DHT22;39553;52.954;5.932;2022-09-01T11:45:20;24.20;75.00
53653;DHT22;39553;52.954;5.932;2022-09-01T11:47:56;24.20;74.80
53653;DHT22;39553;52.954;5.932;2022-09-01T11:50:33;24.00;74.00
53653;DHT22;39553;52.954;5.932;2022-09-01T11:52:59;23.70;74.00
53653;DHT22;39553;52.954;5.932;2022-09-01T11:57:54;23.50;74.90
53653;DHT22;39553;52.954;5.932;2022-09-01T12:00:35;23.50;74.80
53653;DHT22;39553;52.954;5.932;2022-09-01T12:03:20;23.50;75.10
53653;DHT22;39553;52.954;5.932;2022-09-01T12:05:48;23.40;75.00
53653;DHT22;39553;52.954;5.932;2022-09-01T12:08:18;23.30;75.20
53653;DHT22;39553;52.954;5.932;2022-09-01T12:10:44;23.20;75.20
53653;DHT22;39553;52.954;5.932;2022-09-01T12:13:18;23.20;75.30
53653;DHT22;39553;52.954;5.932;2022-09-01T12:15:56;23.10;76.10
53653;DHT22;39553;52.954;5.932;2022-09-01T12:18:28;23.10;76.50
53653;DHT22;39553;52.954;5.932;2022-09-01T12:20:56;23.10;76.20
53653;DHT22;39553;52.954;5.932;2022-09-01T12:23:37;23.10;76.20
53653;DHT22;39553;52.954;5.932;2022-09-01T12:26:16;23.10;76.50
53653;DHT22;39553;52.954;5.932;2022-09-01T12:28:43;22.90;76.30
53653;DHT22;39553;52.954;5.932;2022-09-01T12:31:17;22.80;76.10
53653;DHT22;39553;52.954;5.932;2022-09-01T12:33:45;22.70;76.10
53653;DHT22;39553;52.954;5.932;2022-09-01T12:36:26;22.70;76.00
53653;DHT22;39553;52.954;5.932;2022-09-01T12:39:19;22.80;75.80
53653;DHT22;39553;52.954;5.932;2022-09-01T12:41:44;22.90;75.30
53653;DHT22;39553;52.954;5.932;2022-09-01T12:47:04;23.00;75.10
53653;DHT22;39553;52.954;5.932;2022-09-01T12:49:47;23.10;74.90
53653;DHT22;39553;52.954;5.932;2022-09-01T12:52:23;23.10;75.10
53653;DHT22;39553;52.954;5.932;2022-09-01T12:57:28;23.30;74.30
53653;DHT22;39553;52.954;5.932;2022-09-01T13:02:41;23.20;75.50
53653;DHT22;39553;52.954;5.932;2022-09-01T13:05:21;23.20;76.00
53653;DHT22;39553;52.954;5.932;2022-09-01T13:07:48;23.20;75.10
53653;DHT22;39553;52.954;5.932;2022-09-01T13:10:14;23.10;75.10
53653;DHT22;39553;52.954;5.932;2022-09-01T13:12:41;23.10;74.70
53653;DHT22;39553;52.954;5.932;2022-09-01T13:15:08;23.10;74.80
53653;DHT22;39553;52.954;5.932;2022-09-01T13:17:34;23.10;74.50
53653;DHT22;39553;52.954;5.932;2022-09-01T13:19:59;23.10;74.80
53653;DHT22;39553;52.954;5.932;2022-09-01T13:22:25;23.10;74.60
53653;DHT22;39553;52.954;5.932;2022-09-01T13:24:51;23.10;74.30
53653;DHT22;39553;52.954;5.932;2022-09-01T13:27:17;23.10;74.30
53653;DHT22;39553;52.954;5.932;2022-09-01T13:29:43;23.20;74.90
53653;DHT22;39553;52.954;5.932;2022-09-01T13:32:09;23.30;75.00
53653;DHT22;39553;52.954;5.932;2022-09-01T13:34:35;23.50;75.20
53653;DHT22;39553;52.954;5.932;2022-09-01T13:37:00;23.50;74.90
53653;DHT22;39553;52.954;5.932;2022-09-01T13:39:26;23.60;74.80
53653;DHT22;39553;52.954;5.932;2022-09-01T13:41:52;23.50;74.50
53653;DHT22;39553;52.954;5.932;2022-09-01T13:44:18;23.40;74.50
53653;DHT22;39553;52.954;5.932;2022-09-01T13:46:44;23.30;75.60
53653;DHT22;39553;52.954;5.932;2022-09-01T13:49:10;23.20;75.40
53653;DHT22;39553;52.954;5.932;2022-09-01T13:51:36;23.30;75.80
53653;DHT22;39553;52.954;5.932;2022-09-01T13:54:03;23.40;75.50
53653;DHT22;39553;52.954;5.932;2022-09-01T13:56:29;23.40;75.10
53653;DHT22;39553;52.954;5.932;2022-09-01T13:58:54;23.30;75.10
53653;DHT22;39553;52.954;5.932;2022-09-01T14:01:20;23.40;75.50
53653;DHT22;39553;52.954;5.932;2022-09-01T14:03:47;23.40;75.60
53653;DHT22;39553;52.954;5.932;2022-09-01T14:06:14;23.60;75.70
53653;DHT22;39553;52.954;5.932;2022-09-01T14:08:40;23.70;75.70
53653;DHT22;39553;52.954;5.932;2022-09-01T14:11:06;23.60;75.60
53653;DHT22;39553;52.954;5.932;2022-09-01T14:13:32;23.60;75.70
53653;DHT22;39553;52.954;5.932;2022-09-01T14:15:59;23.40;75.70
53653;DHT22;39553;52.954;5.932;2022-09-01T14:18:25;23.20;75.70
53653;DHT22;39553;52.954;5.932;2022-09-01T14:20:57;23.20;76.20
53653;DHT22;39553;52.954;5.932;2022-09-01T14:23:26;23.20;76.10
53653;DHT22;39553;52.954;5.932;2022-09-01T14:25:52;23.30;76.20
53653;DHT22;39553;52.954;5.932;2022-09-01T14:28:20;23.40;75.90
53653;DHT22;39553;52.954;5.932;2022-09-01T14:30:46;23.50;75.30
53653;DHT22;39553;52.954;5.932;2022-09-01T14:33:13;23.70;75.20
53653;DHT22;39553;52.954;5.932;2022-09-01T14:35:41;23.70;75.00
53653;DHT22;39553;52.954;5.932;2022-09-01T14:38:07;23.70;75.10
53653;DHT22;39553;52.954;5.932;2022-09-01T14:40:35;23.70;75.40
53653;DHT22;39553;52.954;5.932;2022-09-01T14:43:03;23.70;75.40
53653;DHT22;39553;52.954;5.932;2022-09-01T14:45:30;23.60;75.30
53653;DHT22;39553;52.954;5.932;2022-09-01T14:47:57;23.50;75.60
53653;DHT22;39553;52.954;5.932;2022-09-01T14:50:26;23.50;75.70
53653;DHT22;39553;52.954;5.932;2022-09-01T14:52:56;23.40;75.70
53653;DHT22;39553;52.954;5.932;2022-09-01T14:55:24;23.20;75.80
53653;DHT22;39553;52.954;5.932;2022-09-01T14:57:51;23.10;75.90
53653;DHT22;39553;52.954;5.932;2022-09-01T15:00:18;23.10;76.10
53653;DHT22;39553;52.954;5.932;2022-09-01T15:02:44;23.20;75.80
53653;DHT22;39553;52.954;5.932;2022-09-01T15:05:12;23.30;75.90
53653;DHT22;39553;52.954;5.932;2022-09-01T15:07:39;23.50;75.90
53653;DHT22;39553;52.954;5.932;2022-09-01T15:10:07;23.60;75.90
53653;DHT22;39553;52.954;5.932;2022-09-01T15:12:33;23.80;75.90
53653;DHT22;39553;52.954;5.932;2022-09-01T15:15:00;23.90;76.00
53653;DHT22;39553;52.954;5.932;2022-09-01T15:17:27;23.90;76.20
53653;DHT22;39553;52.954;5.932;2022-09-01T15:19:53;23.90;76.20
53653;DHT22;39553;52.954;5.932;2022-09-01T15:22:19;23.80;76.30
53653;DHT22;39553;52.954;5.932;2022-09-01T15:24:44;23.60;75.60
53653;DHT22;39553;52.954;5.932;2022-09-01T15:27:10;23.50;75.80
53653;DHT22;39553;52.954;5.932;2022-09-01T15:29:36;23.30;76.00
53653;DHT22;39553;52.954;5.932;2022-09-01T15:32:11;23.20;76.30
53653;DHT22;39553;52.954;5.932;2022-09-01T15:34:37;23.10;76.00
53653;DHT22;39553;52.954;5.932;2022-09-01T15:37:04;23.20;76.50
53653;DHT22;39553;52.954;5.932;2022-09-01T15:39:30;23.20;76.60
53653;DHT22;39553;52.954;5.932;2022-09-01T15:41:56;23.40;76.80
53653;DHT22;39553;52.954;5.932;2022-09-01T15:44:21;23.50;76.10
53653;DHT22;39553;52.954;5.932;2022-09-01T15:46:47;23.50;75.70
53653;DHT22;39553;52.954;5.932;2022-09-01T15:49:13;23.40;75.40
53653;DHT22;39553;52.954;5.932;2022-09-01T15:51:41;23.20;75.40
53653;DHT22;39553;52.954;5.932;2022-09-01T15:54:12;23.00;75.40
53653;DHT22;39553;52.954;5.932;2022-09-01T15:56:38;22.90;76.00
53653;DHT22;39553;52.954;5.932;2022-09-01T15:59:06;22.70;76.40
53653;DHT22;39553;52.954;5.932;2022-09-01T16:01:35;22.60;76.90
53653;DHT22;39553;52.954;5.932;2022-09-01T16:04:02;22.50;77.10
53653;DHT22;39553;52.954;5.932;2022-09-01T16:06:29;22.40;77.20
53653;DHT22;39553;52.954;5.932;2022-09-01T16:08:54;22.30;77.10
53653;DHT22;39553;52.954;5.932;2022-09-01T16:11:22;22.40;76.80
53653;DHT22;39553;52.954;5.932;2022-09-01T16:13:48;22.50;77.00
53653;DHT22;39553;52.954;5.932;2022-09-01T16:24:51;23.10;76.10
53653;DHT22;39553;52.954;5.932;2022-09-01T16:27:27;23.20;76.20
53653;DHT22;39553;52.954;5.932;2022-09-01T16:30:10;23.20;75.90
53653;DHT22;39553;52.954;5.932;2022-09-01T16:32:44;23.20;74.80
53653;DHT22;39553;52.954;5.932;2022-09-01T16:35:10;23.20;74.90
53653;DHT22;39553;52.954;5.932;2022-09-01T16:40:59;23.00;74.40
53653;DHT22;39553;52.954;5.932;2022-09-01T16:43:52;22.80;75.50
53653;DHT22;39553;52.954;5.932;2022-09-01T16:46:24;22.60;75.80
53653;DHT22;39553;52.954;5.932;2022-09-01T16:49:18;22.40;76.00
53653;DHT22;39553;52.954;5.932;2022-09-01T16:54:51;22.10;76.30
53653;DHT22;39553;52.954;5.932;2022-09-01T16:57:38;22.10;76.60
53653;DHT22;39553;52.954;5.932;2022-09-01T17:00:09;22.00;77.20
53653;DHT22;39553;52.954;5.932;2022-09-01T17:05:32;21.70;78.20